sensor_id;sensor_type;location;lat;lon;timestamp;pressure;altitude;pressure_sealevel;temperature;humidity
71165;BME280;58859;55.132;-1.586;2023-11-18T00:02:17;101167.13;;;12.22;100.00
71165;BME280;58859;55.132;-1.586;2023-11-18T00:04:42;101156.78;;;11.85;100.00
71165;BME280;58859;55.132;-1.586;2023-11-18T00:07:08;101142.19;;;10.71;100.00
71165;BME280;58859;55.132;-1.586;2023-11-18T00:09:33;101135.47;;;10.87;100.00
71165;BME280;58859;55.132;-1.586;2023-11-18T00:11:59;101123.72;;;11.39;100.00
71165;BME280;58859;55.132;-1.586;2023-11-18T00:14:24;101119.94;;;11.61;100.00
71165;BME280;58859;55.132;-1.586;2023-11-18T00:16:49;101120.47;;;11.18;100.00
71165;BME280;58859;55.132;-1.586;2023-11-18T00:19:15;101132.88;;;10.87;100.00
71165;BME280;58859;55.132;-1.586;2023-11-18T00:21:40;101117.69;;;10.92;100.00
71165;BME280;58859;55.132;-1.586;2023-11-18T00:24:06;101124.28;;;11.33;100.00
71165;BME280;58859;55.132;-1.586;2023-11-18T00:26:33;101116.09;;;11.75;100.00
71165;BME280;58859;55.132;-1.586;2023-11-18T00:28:59;101121.91;;;11.86;100.00
71165;BME280;58859;55.132;-1.586;2023-11-18T00:31:26;101097.59;;;11.59;100.00
71165;BME280;58859;55.132;-1.586;2023-11-18T00:33:51;101105.69;;;12.37;100.00
71165;BME280;58859;55.132;-1.586;2023-11-18T00:36:17;101092.16;;;11.15;100.00
71165;BME280;58859;55.132;-1.586;2023-11-18T00:38:43;101088.06;;;11.03;100.00
71165;BME280;58859;55.132;-1.586;2023-11-18T00:41:08;101087.25;;;12.21;100.00
71165;BME280;58859;55.132;-1.586;2023-11-18T00:43:33;101085.09;;;12.17;100.00
71165;BME280;58859;55.132;-1.586;2023-11-18T00:45:59;101074.00;;;12.15;100.00
71165;BME280;58859;55.132;-1.586;2023-11-18T00:48:25;101057.97;;;11.55;100.00
71165;BME280;58859;55.132;-1.586;2023-11-18T00:50:50;101056.66;;;11.51;100.00
71165;BME280;58859;55.132;-1.586;2023-11-18T00:53:17;101052.00;;;12.35;100.00
71165;BME280;58859;55.132;-1.586;2023-11-18T00:55:42;101048.25;;;11.57;100.00
71165;BME280;58859;55.132;-1.586;2023-11-18T00:58:08;101040.38;;;11.39;100.00
71165;BME280;58859;55.132;-1.586;2023-11-18T01:00:33;101039.09;;;11.26;100.00
71165;BME280;58859;55.132;-1.586;2023-11-18T01:02:58;101024.19;;;11.73;100.00
71165;BME280;58859;55.132;-1.586;2023-11-18T01:05:24;101018.19;;;10.98;100.00
71165;BME280;58859;55.132;-1.586;2023-11-18T01:07:49;101011.44;;;10.78;100.00
71165;BME280;58859;55.132;-1.586;2023-11-18T01:10:15;100992.63;;;10.94;100.00
71165;BME280;58859;55.132;-1.586;2023-11-18T01:12:41;100998.09;;;10.91;100.00
71165;BME280;58859;55.132;-1.586;2023-11-18T01:15:07;101008.31;;;11.12;100.00
71165;BME280;58859;55.132;-1.586;2023-11-18T01:17:35;101008.72;;;11.07;100.00
71165;BME280;58859;55.132;-1.586;2023-11-18T01:20:01;101012.94;;;11.18;100.00
71165;BME280;58859;55.132;-1.586;2023-11-18T01:22:31;101006.31;;;11.78;100.00
71165;BME280;58859;55.132;-1.586;2023-11-18T01:24:59;100978.56;;;11.86;100.00
71165;BME280;58859;55.132;-1.586;2023-11-18T01:27:25;100969.44;;;10.64;100.00
71165;BME280;58859;55.132;-1.586;2023-11-18T01:29:50;100970.41;;;10.53;100.00
71165;BME280;58859;55.132;-1.586;2023-11-18T01:32:15;100971.31;;;11.08;100.00
71165;BME280;58859;55.132;-1.586;2023-11-18T01:34:42;100957.69;;;10.87;100.00
71165;BME280;58859;55.132;-1.586;2023-11-18T01:37:09;100977.44;;;11.44;100.00
71165;BME280;58859;55.132;-1.586;2023-11-18T01:39:35;100976.53;;;11.08;100.00
71165;BME280;58859;55.132;-1.586;2023-11-18T01:42:01;100962.97;;;11.05;100.00
71165;BME280;58859;55.132;-1.586;2023-11-18T01:44:28;100966.41;;;11.05;100.00
71165;BME280;58859;55.132;-1.586;2023-11-18T01:46:57;100958.50;;;10.51;100.00
71165;BME280;58859;55.132;-1.586;2023-11-18T01:49:24;100966.56;;;10.57;100.00
71165;BME280;58859;55.132;-1.586;2023-11-18T01:51:52;100950.44;;;11.45;100.00
71165;BME280;58859;55.132;-1.586;2023-11-18T01:54:19;100938.44;;;11.07;100.00
71165;BME280;58859;55.132;-1.586;2023-11-18T01:56:47;100940.84;;;10.91;100.00
71165;BME280;58859;55.132;-1.586;2023-11-18T01:59:13;100944.16;;;11.20;100.00
71165;BME280;58859;55.132;-1.586;2023-11-18T02:01:46;100933.47;;;11.14;100.00
71165;BME280;58859;55.132;-1.586;2023-11-18T02:04:13;100930.81;;;10.96;100.00
71165;BME280;58859;55.132;-1.586;2023-11-18T02:06:39;100921.78;;;11.45;100.00
71165;BME280;58859;55.132;-1.586;2023-11-18T02:09:05;100922.38;;;10.84;100.00
71165;BME280;58859;55.132;-1.586;2023-11-18T02:11:42;100899.88;;;10.93;100.00
71165;BME280;58859;55.132;-1.586;2023-11-18T02:14:14;100903.06;;;11.14;100.00
71165;BME280;58859;55.132;-1.586;2023-11-18T02:16:42;100895.31;;;11.05;100.00
71165;BME280;58859;55.132;-1.586;2023-11-18T02:19:19;100881.81;;;11.36;100.00
71165;BME280;58859;55.132;-1.586;2023-11-18T02:21:46;100875.75;;;10.73;100.00
71165;BME280;58859;55.132;-1.586;2023-11-18T02:24:24;100866.44;;;10.71;100.00
71165;BME280;58859;55.132;-1.586;2023-11-18T02:26:50;100845.19;;;10.48;100.00
71165;BME280;58859;55.132;-1.586;2023-11-18T02:29:15;100847.78;;;10.48;100.00
71165;BME280;58859;55.132;-1.586;2023-11-18T02:31:40;100847.34;;;11.07;100.00
71165;BME280;58859;55.132;-1.586;2023-11-18T02:34:19;100846.13;;;11.29;100.00
71165;BME280;58859;55.132;-1.586;2023-11-18T02:36:48;100863.16;;;10.96;100.00
71165;BME280;58859;55.132;-1.586;2023-11-18T02:39:21;100846.22;;;10.92;100.00
71165;BME280;58859;55.132;-1.586;2023-11-18T02:41:50;100842.06;;;10.99;100.00
71165;BME280;58859;55.132;-1.586;2023-11-18T02:44:17;100830.63;;;11.80;100.00
71165;BME280;58859;55.132;-1.586;2023-11-18T02:46:43;100834.66;;;11.57;100.00
71165;BME280;58859;55.132;-1.586;2023-11-18T02:49:10;100832.06;;;11.39;100.00
71165;BME280;58859;55.132;-1.586;2023-11-18T02:51:35;100824.09;;;12.69;100.00
71165;BME280;58859;55.132;-1.586;2023-11-18T02:54:07;100804.28;;;11.48;100.00
71165;BME280;58859;55.132;-1.586;2023-11-18T02:56:38;100797.53;;;11.02;100.00
71165;BME280;58859;55.132;-1.586;2023-11-18T02:59:04;100783.16;;;10.80;100.00
71165;BME280;58859;55.132;-1.586;2023-11-18T03:01:33;100768.75;;;10.86;100.00
71165;BME280;58859;55.132;-1.586;2023-11-18T03:04:02;100761.38;;;10.64;100.00
71165;BME280;58859;55.132;-1.586;2023-11-18T03:06:27;100754.69;;;10.79;100.00
71165;BME280;58859;55.132;-1.586;2023-11-18T03:08:53;100749.09;;;10.74;100.00
71165;BME280;58859;55.132;-1.586;2023-11-18T03:11:19;100736.91;;;11.10;100.00
71165;BME280;58859;55.132;-1.586;2023-11-18T03:13:45;100727.88;;;10.78;100.00
71165;BME280;58859;55.132;-1.586;2023-11-18T03:16:14;100720.47;;;10.38;100.00
71165;BME280;58859;55.132;-1.586;2023-11-18T03:18:42;100719.38;;;10.76;100.00
71165;BME280;58859;55.132;-1.586;2023-11-18T03:21:11;100711.94;;;10.64;100.00
71165;BME280;58859;55.132;-1.586;2023-11-18T03:23:38;100709.09;;;10.57;100.00
71165;BME280;58859;55.132;-1.586;2023-11-18T03:26:04;100717.78;;;11.19;100.00
71165;BME280;58859;55.132;-1.586;2023-11-18T03:28:30;100708.66;;;10.62;100.00
71165;BME280;58859;55.132;-1.586;2023-11-18T03:30:56;100714.56;;;10.64;100.00
71165;BME280;58859;55.132;-1.586;2023-11-18T03:33:22;100715.22;;;10.66;100.00
71165;BME280;58859;55.132;-1.586;2023-11-18T03:35:47;100713.94;;;10.52;100.00
71165;BME280;58859;55.132;-1.586;2023-11-18T03:38:13;100703.81;;;10.49;100.00
71165;BME280;58859;55.132;-1.586;2023-11-18T03:40:40;100688.31;;;10.92;100.00
71165;BME280;58859;55.132;-1.586;2023-11-18T03:43:06;100697.31;;;10.80;100.00
71165;BME280;58859;55.132;-1.586;2023-11-18T03:45:32;100683.59;;;10.43;100.00
71165;BME280;58859;55.132;-1.586;2023-11-18T03:47:58;100676.03;;;10.50;100.00
71165;BME280;58859;55.132;-1.586;2023-11-18T03:50:26;100637.13;;;10.58;100.00
71165;BME280;58859;55.132;-1.586;2023-11-18T03:52:51;100627.91;;;10.63;100.00
71165;BME280;58859;55.132;-1.586;2023-11-18T03:55:16;100635.03;;;10.61;100.00
71165;BME280;58859;55.132;-1.586;2023-11-18T03:57:43;100635.25;;;10.32;100.00
71165;BME280;58859;55.132;-1.586;2023-11-18T04:00:10;100620.47;;;10.51;100.00
71165;BME280;58859;55.132;-1.586;2023-11-18T04:02:36;100617.78;;;10.43;100.00
71165;BME280;58859;55.132;-1.586;2023-11-18T04:05:03;100600.34;;;10.35;100.00
71165;BME280;58859;55.132;-1.586;2023-11-18T04:07:29;100598.09;;;10.75;100.00
71165;BME280;58859;55.132;-1.586;2023-11-18T04:09:54;100605.44;;;10.45;100.00
71165;BME280;58859;55.132;-1.586;2023-11-18T04:12:20;100598.63;;;10.61;100.00
71165;BME280;58859;55.132;-1.586;2023-11-18T04:14:45;100597.59;;;10.54;100.00
71165;BME280;58859;55.132;-1.586;2023-11-18T04:17:11;100598.31;;;10.64;100.00
71165;BME280;58859;55.132;-1.586;2023-11-18T04:19:36;100593.13;;;10.29;100.00
71165;BME280;58859;55.132;-1.586;2023-11-18T04:22:02;100586.44;;;10.26;100.00
71165;BME280;58859;55.132;-1.586;2023-11-18T04:24:29;100580.06;;;10.38;100.00
71165;BME280;58859;55.132;-1.586;2023-11-18T04:26:55;100587.94;;;10.29;100.00
71165;BME280;58859;55.132;-1.586;2023-11-18T04:29:20;100582.34;;;10.59;100.00
71165;BME280;58859;55.132;-1.586;2023-11-18T04:31:46;100572.09;;;10.40;100.00
71165;BME280;58859;55.132;-1.586;2023-11-18T04:34:12;100581.25;;;10.26;100.00
71165;BME280;58859;55.132;-1.586;2023-11-18T04:36:41;100564.66;;;10.63;100.00
71165;BME280;58859;55.132;-1.586;2023-11-18T04:39:06;100558.16;;;10.41;100.00
71165;BME280;58859;55.132;-1.586;2023-11-18T04:41:32;100547.00;;;10.49;100.00
71165;BME280;58859;55.132;-1.586;2023-11-18T04:43:57;100545.88;;;10.33;100.00
71165;BME280;58859;55.132;-1.586;2023-11-18T04:46:23;100539.53;;;10.71;100.00
71165;BME280;58859;55.132;-1.586;2023-11-18T04:48:48;100538.00;;;10.61;100.00
71165;BME280;58859;55.132;-1.586;2023-11-18T04:51:14;100533.97;;;10.92;100.00
71165;BME280;58859;55.132;-1.586;2023-11-18T04:53:39;100515.88;;;10.82;100.00
71165;BME280;58859;55.132;-1.586;2023-11-18T04:56:04;100492.22;;;10.24;100.00
71165;BME280;58859;55.132;-1.586;2023-11-18T04:58:31;100485.41;;;9.96;100.00
71165;BME280;58859;55.132;-1.586;2023-11-18T05:00:56;100478.09;;;10.27;100.00
71165;BME280;58859;55.132;-1.586;2023-11-18T05:03:22;100466.97;;;10.17;100.00
71165;BME280;58859;55.132;-1.586;2023-11-18T05:05:49;100454.47;;;10.03;100.00
71165;BME280;58859;55.132;-1.586;2023-11-18T05:08:20;100470.59;;;10.24;100.00
71165;BME280;58859;55.132;-1.586;2023-11-18T05:10:50;100458.81;;;10.55;100.00
71165;BME280;58859;55.132;-1.586;2023-11-18T05:13:16;100452.44;;;10.50;100.00
71165;BME280;58859;55.132;-1.586;2023-11-18T05:15:45;100435.16;;;10.41;100.00
71165;BME280;58859;55.132;-1.586;2023-11-18T05:18:14;100427.38;;;10.23;100.00
71165;BME280;58859;55.132;-1.586;2023-11-18T05:20:44;100426.47;;;10.58;100.00
71165;BME280;58859;55.132;-1.586;2023-11-18T05:23:10;100411.00;;;10.56;100.00
71165;BME280;58859;55.132;-1.586;2023-11-18T05:25:36;100340.91;;;9.69;100.00
71165;BME280;58859;55.132;-1.586;2023-11-18T05:28:02;100386.84;;;10.12;100.00
71165;BME280;58859;55.132;-1.586;2023-11-18T05:30:28;100400.78;;;10.29;100.00
71165;BME280;58859;55.132;-1.586;2023-11-18T05:32:56;100406.13;;;10.53;100.00
71165;BME280;58859;55.132;-1.586;2023-11-18T05:35:21;100398.31;;;10.87;100.00
71165;BME280;58859;55.132;-1.586;2023-11-18T05:37:53;100398.47;;;10.52;100.00
71165;BME280;58859;55.132;-1.586;2023-11-18T05:40:19;100393.50;;;11.00;100.00
71165;BME280;58859;55.132;-1.586;2023-11-18T05:42:45;100394.28;;;10.59;100.00
71165;BME280;58859;55.132;-1.586;2023-11-18T05:45:13;100390.66;;;10.77;100.00
71165;BME280;58859;55.132;-1.586;2023-11-18T05:47:55;100386.63;;;10.91;100.00
71165;BME280;58859;55.132;-1.586;2023-11-18T05:50:22;100361.56;;;10.48;100.00
71165;BME280;58859;55.132;-1.586;2023-11-18T05:52:50;100357.09;;;10.58;100.00
71165;BME280;58859;55.132;-1.586;2023-11-18T05:55:15;100357.66;;;10.44;100.00
71165;BME280;58859;55.132;-1.586;2023-11-18T05:57:41;100357.84;;;10.51;100.00
71165;BME280;58859;55.132;-1.586;2023-11-18T06:00:11;100322.06;;;10.45;100.00
71165;BME280;58859;55.132;-1.586;2023-11-18T06:02:41;100334.94;;;10.96;100.00
71165;BME280;58859;55.132;-1.586;2023-11-18T06:05:07;100342.13;;;10.60;100.00
71165;BME280;58859;55.132;-1.586;2023-11-18T06:07:33;100319.72;;;10.67;100.00
71165;BME280;58859;55.132;-1.586;2023-11-18T06:09:59;100305.06;;;10.58;100.00
71165;BME280;58859;55.132;-1.586;2023-11-18T06:12:24;100313.06;;;10.73;100.00
71165;BME280;58859;55.132;-1.586;2023-11-18T06:14:52;100305.31;;;10.39;100.00
71165;BME280;58859;55.132;-1.586;2023-11-18T06:17:17;100292.72;;;10.60;100.00
71165;BME280;58859;55.132;-1.586;2023-11-18T06:19:44;100287.22;;;10.71;100.00
71165;BME280;58859;55.132;-1.586;2023-11-18T06:22:09;100279.38;;;10.55;100.00
71165;BME280;58859;55.132;-1.586;2023-11-18T06:24:35;100272.16;;;10.91;100.00
71165;BME280;58859;55.132;-1.586;2023-11-18T06:27:01;100269.84;;;10.72;100.00
71165;BME280;58859;55.132;-1.586;2023-11-18T06:29:26;100262.16;;;10.54;100.00
71165;BME280;58859;55.132;-1.586;2023-11-18T06:31:54;100243.34;;;10.76;100.00
71165;BME280;58859;55.132;-1.586;2023-11-18T06:34:20;100243.22;;;11.02;100.00
71165;BME280;58859;55.132;-1.586;2023-11-18T06:36:46;100230.22;;;11.10;100.00
71165;BME280;58859;55.132;-1.586;2023-11-18T06:39:11;100232.31;;;10.98;100.00
71165;BME280;58859;55.132;-1.586;2023-11-18T06:41:38;100227.16;;;11.07;100.00
71165;BME280;58859;55.132;-1.586;2023-11-18T06:44:13;100229.72;;;10.98;100.00
71165;BME280;58859;55.132;-1.586;2023-11-18T06:46:43;100229.72;;;10.98;100.00
71165;BME280;58859;55.132;-1.586;2023-11-18T06:49:09;100219.81;;;11.02;100.00
71165;BME280;58859;55.132;-1.586;2023-11-18T06:51:40;100223.22;;;10.86;100.00
71165;BME280;58859;55.132;-1.586;2023-11-18T06:54:06;100219.44;;;10.73;100.00
71165;BME280;58859;55.132;-1.586;2023-11-18T06:56:40;100221.09;;;10.90;100.00
71165;BME280;58859;55.132;-1.586;2023-11-18T06:59:09;100212.31;;;11.07;100.00
71165;BME280;58859;55.132;-1.586;2023-11-18T07:01:38;100205.47;;;10.90;100.00
71165;BME280;58859;55.132;-1.586;2023-11-18T07:04:07;100197.94;;;10.47;100.00
71165;BME280;58859;55.132;-1.586;2023-11-18T07:06:36;100196.38;;;10.94;100.00
71165;BME280;58859;55.132;-1.586;2023-11-18T07:09:06;100192.16;;;11.17;100.00
71165;BME280;58859;55.132;-1.586;2023-11-18T07:11:39;100179.97;;;10.93;100.00
71165;BME280;58859;55.132;-1.586;2023-11-18T07:14:06;100173.47;;;10.98;100.00
71165;BME280;58859;55.132;-1.586;2023-11-18T07:16:34;100166.81;;;11.03;100.00
71165;BME280;58859;55.132;-1.586;2023-11-18T07:18:59;100162.06;;;10.82;100.00
71165;BME280;58859;55.132;-1.586;2023-11-18T07:21:25;100159.31;;;10.84;100.00
71165;BME280;58859;55.132;-1.586;2023-11-18T07:23:50;100152.81;;;10.96;100.00
71165;BME280;58859;55.132;-1.586;2023-11-18T07:26:16;100148.56;;;10.79;100.00
71165;BME280;58859;55.132;-1.586;2023-11-18T07:28:41;100098.97;;;10.96;100.00
71165;BME280;58859;55.132;-1.586;2023-11-18T07:31:08;100120.91;;;11.18;100.00
71165;BME280;58859;55.132;-1.586;2023-11-18T07:33:34;100133.94;;;11.26;100.00
71165;BME280;58859;55.132;-1.586;2023-11-18T07:35:59;100137.03;;;10.98;100.00
71165;BME280;58859;55.132;-1.586;2023-11-18T07:38:25;100130.66;;;11.16;100.00
71165;BME280;58859;55.132;-1.586;2023-11-18T07:40:52;100082.59;;;10.64;100.00
71165;BME280;58859;55.132;-1.586;2023-11-18T07:43:22;100116.88;;;11.00;100.00
71165;BME280;58859;55.132;-1.586;2023-11-18T07:45:47;100106.44;;;11.08;100.00
71165;BME280;58859;55.132;-1.586;2023-11-18T07:48:17;100106.59;;;11.14;100.00
71165;BME280;58859;55.132;-1.586;2023-11-18T07:50:43;100109.53;;;11.19;100.00
71165;BME280;58859;55.132;-1.586;2023-11-18T07:53:15;100106.41;;;11.32;100.00
71165;BME280;58859;55.132;-1.586;2023-11-18T07:55:41;100114.66;;;11.51;100.00
71165;BME280;58859;55.132;-1.586;2023-11-18T07:58:07;100111.50;;;11.72;100.00
71165;BME280;58859;55.132;-1.586;2023-11-18T08:00:41;100110.44;;;11.97;100.00
71165;BME280;58859;55.132;-1.586;2023-11-18T08:03:10;100114.78;;;11.58;100.00
71165;BME280;58859;55.132;-1.586;2023-11-18T08:05:44;100109.47;;;11.90;100.00
71165;BME280;58859;55.132;-1.586;2023-11-18T08:08:11;100105.59;;;11.31;100.00
71165;BME280;58859;55.132;-1.586;2023-11-18T08:10:38;100096.06;;;12.01;100.00
71165;BME280;58859;55.132;-1.586;2023-11-18T08:13:08;100107.44;;;11.62;100.00
71165;BME280;58859;55.132;-1.586;2023-11-18T08:15:34;100086.28;;;11.02;100.00
71165;BME280;58859;55.132;-1.586;2023-11-18T08:18:00;100054.72;;;11.60;100.00
71165;BME280;58859;55.132;-1.586;2023-11-18T08:20:26;100062.63;;;11.35;100.00
71165;BME280;58859;55.132;-1.586;2023-11-18T08:22:52;100075.94;;;11.87;100.00
71165;BME280;58859;55.132;-1.586;2023-11-18T08:25:18;100065.09;;;11.68;100.00
71165;BME280;58859;55.132;-1.586;2023-11-18T08:27:44;100044.28;;;11.29;100.00
71165;BME280;58859;55.132;-1.586;2023-11-18T08:30:11;100039.06;;;11.29;100.00
71165;BME280;58859;55.132;-1.586;2023-11-18T08:32:38;100048.91;;;11.49;100.00
71165;BME280;58859;55.132;-1.586;2023-11-18T08:35:05;100044.06;;;11.38;100.00
71165;BME280;58859;55.132;-1.586;2023-11-18T08:37:33;100052.63;;;11.94;100.00
71165;BME280;58859;55.132;-1.586;2023-11-18T08:40:02;100052.59;;;11.71;100.00
71165;BME280;58859;55.132;-1.586;2023-11-18T08:42:27;100038.97;;;11.92;100.00
71165;BME280;58859;55.132;-1.586;2023-11-18T08:44:54;100025.09;;;11.61;100.00
71165;BME280;58859;55.132;-1.586;2023-11-18T08:47:20;100019.31;;;11.81;100.00
71165;BME280;58859;55.132;-1.586;2023-11-18T08:49:46;100011.03;;;11.39;100.00
71165;BME280;58859;55.132;-1.586;2023-11-18T08:52:12;100001.53;;;11.54;100.00
71165;BME280;58859;55.132;-1.586;2023-11-18T08:54:38;99998.06;;;11.62;100.00
71165;BME280;58859;55.132;-1.586;2023-11-18T08:57:24;100001.22;;;11.49;100.00
71165;BME280;58859;55.132;-1.586;2023-11-18T08:59:51;99979.53;;;11.26;100.00
71165;BME280;58859;55.132;-1.586;2023-11-18T09:02:19;99963.72;;;11.27;100.00
71165;BME280;58859;55.132;-1.586;2023-11-18T09:04:49;99958.28;;;11.45;100.00
71165;BME280;58859;55.132;-1.586;2023-11-18T09:07:15;99951.47;;;11.36;100.00
71165;BME280;58859;55.132;-1.586;2023-11-18T09:09:42;99947.13;;;11.90;100.00
71165;BME280;58859;55.132;-1.586;2023-11-18T09:12:11;99949.66;;;11.44;100.00
71165;BME280;58859;55.132;-1.586;2023-11-18T09:14:37;99957.03;;;11.64;100.00
71165;BME280;58859;55.132;-1.586;2023-11-18T09:17:03;99953.34;;;11.19;100.00
71165;BME280;58859;55.132;-1.586;2023-11-18T09:19:31;99956.22;;;11.63;100.00
71165;BME280;58859;55.132;-1.586;2023-11-18T09:21:57;99955.16;;;11.49;100.00
71165;BME280;58859;55.132;-1.586;2023-11-18T09:24:22;99965.19;;;11.30;100.00
71165;BME280;58859;55.132;-1.586;2023-11-18T09:26:50;99942.16;;;11.11;100.00
71165;BME280;58859;55.132;-1.586;2023-11-18T09:29:16;99928.91;;;11.28;100.00
71165;BME280;58859;55.132;-1.586;2023-11-18T09:31:47;99920.38;;;12.33;100.00
71165;BME280;58859;55.132;-1.586;2023-11-18T09:34:18;99895.66;;;11.61;100.00
71165;BME280;58859;55.132;-1.586;2023-11-18T09:36:43;99931.59;;;11.43;100.00
71165;BME280;58859;55.132;-1.586;2023-11-18T09:39:09;99933.06;;;11.45;100.00
71165;BME280;58859;55.132;-1.586;2023-11-18T09:41:42;99924.34;;;11.30;100.00
71165;BME280;58859;55.132;-1.586;2023-11-18T09:44:07;99915.63;;;11.99;100.00
71165;BME280;58859;55.132;-1.586;2023-11-18T09:46:35;99926.75;;;11.63;100.00
71165;BME280;58859;55.132;-1.586;2023-11-18T09:49:21;99920.16;;;11.52;100.00
71165;BME280;58859;55.132;-1.586;2023-11-18T09:51:58;99917.06;;;11.79;100.00
71165;BME280;58859;55.132;-1.586;2023-11-18T09:54:54;99904.59;;;11.89;100.00
71165;BME280;58859;55.132;-1.586;2023-11-18T09:57:37;99892.22;;;11.69;100.00
71165;BME280;58859;55.132;-1.586;2023-11-18T10:00:06;99900.97;;;11.22;100.00
71165;BME280;58859;55.132;-1.586;2023-11-18T10:02:50;99894.16;;;11.44;100.00
71165;BME280;58859;55.132;-1.586;2023-11-18T10:05:17;99894.66;;;11.17;100.00
71165;BME280;58859;55.132;-1.586;2023-11-18T10:07:46;99890.91;;;11.42;100.00
71165;BME280;58859;55.132;-1.586;2023-11-18T10:10:16;99892.63;;;11.27;100.00
71165;BME280;58859;55.132;-1.586;2023-11-18T10:12:45;99889.09;;;11.96;100.00
71165;BME280;58859;55.132;-1.586;2023-11-18T10:15:13;99869.53;;;11.54;100.00
71165;BME280;58859;55.132;-1.586;2023-11-18T10:17:43;99890.22;;;11.25;100.00
71165;BME280;58859;55.132;-1.586;2023-11-18T10:20:47;99862.50;;;11.32;100.00
71165;BME280;58859;55.132;-1.586;2023-11-18T10:23:17;99857.88;;;11.42;100.00
71165;BME280;58859;55.132;-1.586;2023-11-18T10:28:28;99844.69;;;11.67;100.00
71165;BME280;58859;55.132;-1.586;2023-11-18T10:31:05;99825.78;;;11.50;100.00
71165;BME280;58859;55.132;-1.586;2023-11-18T10:35:57;99814.50;;;11.95;100.00
71165;BME280;58859;55.132;-1.586;2023-11-18T10:38:23;99804.19;;;12.01;100.00
71165;BME280;58859;55.132;-1.586;2023-11-18T10:40:56;99803.63;;;11.77;100.00
71165;BME280;58859;55.132;-1.586;2023-11-18T10:43:22;99805.81;;;12.02;100.00
71165;BME280;58859;55.132;-1.586;2023-11-18T10:46:08;99793.69;;;12.24;100.00
71165;BME280;58859;55.132;-1.586;2023-11-18T10:51:17;99760.69;;;12.82;100.00
71165;BME280;58859;55.132;-1.586;2023-11-18T10:53:47;99749.81;;;12.13;100.00
71165;BME280;58859;55.132;-1.586;2023-11-18T10:56:24;99763.56;;;12.36;100.00
71165;BME280;58859;55.132;-1.586;2023-11-18T10:59:06;99772.19;;;12.22;100.00
71165;BME280;58859;55.132;-1.586;2023-11-18T11:01:36;99773.88;;;12.00;100.00
71165;BME280;58859;55.132;-1.586;2023-11-18T11:04:08;99792.75;;;11.88;100.00
71165;BME280;58859;55.132;-1.586;2023-11-18T11:06:36;99786.56;;;11.89;100.00
71165;BME280;58859;55.132;-1.586;2023-11-18T11:09:09;99777.91;;;11.74;100.00
71165;BME280;58859;55.132;-1.586;2023-11-18T11:11:46;99775.88;;;11.61;100.00
71165;BME280;58859;55.132;-1.586;2023-11-18T11:14:12;99792.84;;;11.80;100.00
71165;BME280;58859;55.132;-1.586;2023-11-18T11:16:45;99784.59;;;12.05;100.00
71165;BME280;58859;55.132;-1.586;2023-11-18T11:19:25;99782.00;;;12.20;100.00
71165;BME280;58859;55.132;-1.586;2023-11-18T11:22:07;99767.75;;;11.79;100.00
71165;BME280;58859;55.132;-1.586;2023-11-18T11:27:33;99732.34;;;12.43;100.00
71165;BME280;58859;55.132;-1.586;2023-11-18T11:30:20;99743.41;;;11.86;100.00
71165;BME280;58859;55.132;-1.586;2023-11-18T11:33:04;99731.28;;;12.73;100.00
71165;BME280;58859;55.132;-1.586;2023-11-18T11:35:40;99719.47;;;12.56;100.00
71165;BME280;58859;55.132;-1.586;2023-11-18T11:38:12;99720.22;;;12.35;100.00
71165;BME280;58859;55.132;-1.586;2023-11-18T11:40:41;99707.28;;;12.63;100.00
71165;BME280;58859;55.132;-1.586;2023-11-18T11:43:09;99705.22;;;13.71;100.00
71165;BME280;58859;55.132;-1.586;2023-11-18T11:45:36;99705.59;;;12.91;100.00
71165;BME280;58859;55.132;-1.586;2023-11-18T11:48:03;99700.69;;;13.86;100.00
71165;BME280;58859;55.132;-1.586;2023-11-18T11:50:58;99699.94;;;13.92;100.00
71165;BME280;58859;55.132;-1.586;2023-11-18T11:53:30;99687.00;;;15.31;100.00
71165;BME280;58859;55.132;-1.586;2023-11-18T11:56:01;99689.41;;;15.72;100.00
71165;BME280;58859;55.132;-1.586;2023-11-18T11:58:38;99696.03;;;14.83;100.00
71165;BME280;58859;55.132;-1.586;2023-11-18T12:01:47;99700.91;;;15.25;100.00
71165;BME280;58859;55.132;-1.586;2023-11-18T12:04:17;99685.97;;;14.93;100.00
71165;BME280;58859;55.132;-1.586;2023-11-18T12:06:47;99684.94;;;14.61;100.00
71165;BME280;58859;55.132;-1.586;2023-11-18T12:09:19;99687.41;;;13.81;100.00
71165;BME280;58859;55.132;-1.586;2023-11-18T12:11:48;99680.84;;;14.32;100.00
71165;BME280;58859;55.132;-1.586;2023-11-18T12:14:15;99694.47;;;13.87;100.00
71165;BME280;58859;55.132;-1.586;2023-11-18T12:19:46;99681.06;;;14.44;100.00
71165;BME280;58859;55.132;-1.586;2023-11-18T12:22:22;99680.13;;;14.78;100.00
71165;BME280;58859;55.132;-1.586;2023-11-18T12:35:29;99679.75;;;13.79;100.00
71165;BME280;58859;55.132;-1.586;2023-11-18T12:38:19;99660.94;;;13.97;100.00
71165;BME280;58859;55.132;-1.586;2023-11-18T12:40:57;99662.13;;;14.35;100.00
71165;BME280;58859;55.132;-1.586;2023-11-18T12:49:02;99652.94;;;14.12;100.00
71165;BME280;58859;55.132;-1.586;2023-11-18T12:51:28;99647.81;;;13.84;100.00
71165;BME280;58859;55.132;-1.586;2023-11-18T12:53:56;99658.38;;;14.77;100.00
71165;BME280;58859;55.132;-1.586;2023-11-18T12:56:22;99651.84;;;13.87;100.00
71165;BME280;58859;55.132;-1.586;2023-11-18T12:58:50;99646.16;;;14.24;100.00
71165;BME280;58859;55.132;-1.586;2023-11-18T13:01:16;99646.69;;;14.06;100.00
71165;BME280;58859;55.132;-1.586;2023-11-18T13:03:42;99632.97;;;14.38;100.00
71165;BME280;58859;55.132;-1.586;2023-11-18T13:06:16;99640.88;;;15.04;100.00
71165;BME280;58859;55.132;-1.586;2023-11-18T13:08:42;99643.03;;;14.42;100.00
71165;BME280;58859;55.132;-1.586;2023-11-18T13:11:07;99632.19;;;14.58;100.00